Butterfly — C6UP2 — position and weather

sailwx.info

Track history (hours):
 
Tides and Currents Weather Stations Pressure Air Temp Water Temp Dewpoint Dewpoint Depression Visibility Wind Speed Wind Dir Waves Ship Positions

Butterfly

Last reported at 2018-Feb-06 15:14 UTC. Time now 2018-Feb-24 10:06 UTC.
Position N 09°11' W 079°52'.
Warning: this ship's position is 17 days out of date.

; draft 11.7 m.

Type: Ship. MMSI: 311985000.

Date/timePositionNaut miles runAvg speedWind from/ knotsBaromVisibWave heightAir tempDewpointWater temp
2018-Feb-06 15:14N 09°11' W 079°52'311.6
2018-Feb-06 15:00N 09°12' W 079°55'3 4.6
2018-Feb-06 14:17N 09°15' W 079°55'0 0.0
2018-Feb-06 13:59N 09°15' W 079°55'0 0.0
2018-Feb-06 13:08N 09°15' W 079°55'0 0.0
2018-Feb-06 12:53N 09°15' W 079°55'0 0.0
2018-Feb-06 12:11N 09°15' W 079°55'0 0.0
2018-Feb-06 11:59N 09°15' W 079°55'0 0.1
2018-Feb-06 11:23N 09°15' W 079°55'0 0.0
2018-Feb-06 10:59N 09°15' W 079°55'0 0.0
2018-Feb-06 09:32N 09°15' W 079°55'0 0.1
2018-Feb-06 09:05N 09°15' W 079°55'0 0.1
2018-Feb-06 08:59N 09°15' W 079°55'0 0.2
2018-Feb-06 08:29N 09°15' W 079°55'2 1.0
2018-Feb-06 06:30N 09°17' W 079°55'3 6.0
2018-Feb-06 06:00N 09°20' W 079°55'5 5.3
2018-Feb-06 05:00N 09°26' W 079°56'0 0.2
2018-Feb-06 04:30N 09°26' W 079°56'0 0.0
2018-Feb-06 03:57N 09°26' W 079°56'0 0.0
2018-Feb-06 03:12N 09°26' W 079°56'0 0.0
2018-Feb-06 02:54N 09°26' W 079°56'0 0.1
2018-Feb-06 02:30N 09°26' W 079°56'0 0.0
2018-Feb-06 02:00N 09°26' W 079°56'0 0.0
2018-Feb-06 01:30N 09°26' W 079°56'0 0.0
2018-Feb-06 01:00N 09°26' W 079°56'0 0.0
2018-Feb-06 00:29N 09°26' W 079°56'0 0.0
2018-Feb-05 23:30N 09°26' W 079°56'0 0.0
2018-Feb-05 23:00N 09°26' W 079°56'0 0.1
2018-Feb-05 22:30N 09°26' W 079°56'0 0.0
2018-Feb-05 22:00N 09°26' W 079°56'0 0.4
2018-Feb-05 21:30N 09°26' W 079°56'7 7.5
2018-Feb-05 20:30N 09°33' W 079°54'  
2018-Feb-01 06:53N 28°15' W 094°26'612.7
2018-Feb-01 06:24N 28°21' W 094°25'612.8
2018-Feb-01 05:57N 28°27' W 094°25'612.7
2018-Feb-01 05:29N 28°33' W 094°25'812.7
2018-Feb-01 04:50N 28°41' W 094°25'412.6
2018-Feb-01 04:30N 28°45' W 094°25'712.8
2018-Feb-01 03:59N 28°52' W 094°26'1812.3
2018-Feb-01 02:31N 29°10' W 094°29'012.6
2018-Feb-01 02:30N 29°10' W 094°29'611.9
2018-Feb-01 01:57N 29°14' W 094°35'2 0.9
2018-Jan-31 23:54N 29°14' W 094°37'0 0.0
2018-Jan-31 22:48N 29°14' W 094°37'0 0.4
2018-Jan-31 22:27N 29°15' W 094°37'8 5.6
2018-Jan-31 20:58N 29°21' W 094°43'510.1
2018-Jan-31 20:30N 29°22' W 094°48'4 8.4
2018-Jan-31 20:00N 29°23' W 094°53'1 1.6
2018-Jan-31 19:23N 29°22' W 094°53'0 0.0
2018-Jan-31 18:59N 29°22' W 094°53'0 0.0
2018-Jan-31 18:11N 29°22' W 094°53'0 0.0
2018-Jan-31 17:59N 29°22' W 094°53'0 0.0
2018-Jan-31 17:29N 29°22' W 094°53'0 0.0
2018-Jan-31 12:08N 29°22' W 094°53'0 0.0
2018-Jan-31 11:53N 29°22' W 094°53'0 0.0
2018-Jan-31 11:28N 29°22' W 094°53'0 0.0
2018-Jan-31 10:50N 29°22' W 094°53'0 0.0
2018-Jan-31 09:11N 29°22' W 094°53'0 0.0
2018-Jan-31 08:59N 29°22' W 094°53'0 0.0
2018-Jan-31 07:56N 29°22' W 094°53'0 0.0
2018-Jan-31 07:23N 29°22' W 094°53'0 0.0
2018-Jan-31 06:58N 29°22' W 094°53'0 0.0
2018-Jan-31 06:26N 29°22' W 094°53'0 0.0
2018-Jan-31 05:56N 29°22' W 094°53'  
2018-Jan-28 19:31N 29°22' W 094°53'0 0.0
2018-Jan-28 19:23N 29°22' W 094°53'0 0.0
2018-Jan-28 18:59N 29°22' W 094°53'0 0.2
2018-Jan-28 18:30N 29°22' W 094°53'3 3.9
2018-Jan-28 17:41N 29°22' W 094°50'  
Track history (hours):
 
Tides and Currents Weather Stations Pressure Air Temp Water Temp Dewpoint Dewpoint Depression Visibility Wind Speed Wind Dir Waves Ship Positions

Butterfly

Last reported at 2018-Feb-06 15:14 UTC. Time now 2018-Feb-24 10:06 UTC.
Position N 09°11' W 079°52'.
Warning: this ship's position is 17 days out of date.

; draft 11.7 m.

Type: Ship. MMSI: 311985000.

Date/timePositionNaut miles runAvg speedWind from/ knotsBaromVisibWave heightAir tempDewpointWater temp
2018-Feb-06 15:14N 09°11' W 079°52'311.6
2018-Feb-06 15:00N 09°12' W 079°55'3 4.6
2018-Feb-06 14:17N 09°15' W 079°55'0 0.0
2018-Feb-06 13:59N 09°15' W 079°55'0 0.0
2018-Feb-06 13:08N 09°15' W 079°55'0 0.0
2018-Feb-06 12:53N 09°15' W 079°55'0 0.0
2018-Feb-06 12:11N 09°15' W 079°55'0 0.0
2018-Feb-06 11:59N 09°15' W 079°55'0 0.1
2018-Feb-06 11:23N 09°15' W 079°55'0 0.0
2018-Feb-06 10:59N 09°15' W 079°55'0 0.0
2018-Feb-06 09:32N 09°15' W 079°55'0 0.1
2018-Feb-06 09:05N 09°15' W 079°55'0 0.1
2018-Feb-06 08:59N 09°15' W 079°55'0 0.2
2018-Feb-06 08:29N 09°15' W 079°55'2 1.0
2018-Feb-06 06:30N 09°17' W 079°55'3 6.0
2018-Feb-06 06:00N 09°20' W 079°55'5 5.3
2018-Feb-06 05:00N 09°26' W 079°56'0 0.2
2018-Feb-06 04:30N 09°26' W 079°56'0 0.0
2018-Feb-06 03:57N 09°26' W 079°56'0 0.0
2018-Feb-06 03:12N 09°26' W 079°56'0 0.0
2018-Feb-06 02:54N 09°26' W 079°56'0 0.1
2018-Feb-06 02:30N 09°26' W 079°56'0 0.0
2018-Feb-06 02:00N 09°26' W 079°56'0 0.0
2018-Feb-06 01:30N 09°26' W 079°56'0 0.0
2018-Feb-06 01:00N 09°26' W 079°56'0 0.0
2018-Feb-06 00:29N 09°26' W 079°56'0 0.0
2018-Feb-05 23:30N 09°26' W 079°56'0 0.0
2018-Feb-05 23:00N 09°26' W 079°56'0 0.1
2018-Feb-05 22:30N 09°26' W 079°56'0 0.0
2018-Feb-05 22:00N 09°26' W 079°56'0 0.4
2018-Feb-05 21:30N 09°26' W 079°56'7 7.5
2018-Feb-05 20:30N 09°33' W 079°54'  
2018-Feb-01 06:53N 28°15' W 094°26'612.7
2018-Feb-01 06:24N 28°21' W 094°25'612.8
2018-Feb-01 05:57N 28°27' W 094°25'612.7
2018-Feb-01 05:29N 28°33' W 094°25'812.7
2018-Feb-01 04:50N 28°41' W 094°25'412.6
2018-Feb-01 04:30N 28°45' W 094°25'712.8
2018-Feb-01 03:59N 28°52' W 094°26'1812.3
2018-Feb-01 02:31N 29°10' W 094°29'012.6
2018-Feb-01 02:30N 29°10' W 094°29'611.9
2018-Feb-01 01:57N 29°14' W 094°35'2 0.9
2018-Jan-31 23:54N 29°14' W 094°37'0 0.0
2018-Jan-31 22:48N 29°14' W 094°37'0 0.4
2018-Jan-31 22:27N 29°15' W 094°37'8 5.6
2018-Jan-31 20:58N 29°21' W 094°43'510.1
2018-Jan-31 20:30N 29°22' W 094°48'4 8.4
2018-Jan-31 20:00N 29°23' W 094°53'1 1.6
2018-Jan-31 19:23N 29°22' W 094°53'0 0.0
2018-Jan-31 18:59N 29°22' W 094°53'0 0.0
2018-Jan-31 18:11N 29°22' W 094°53'0 0.0
2018-Jan-31 17:59N 29°22' W 094°53'0 0.0
2018-Jan-31 17:29N 29°22' W 094°53'0 0.0
2018-Jan-31 12:08N 29°22' W 094°53'0 0.0
2018-Jan-31 11:53N 29°22' W 094°53'0 0.0
2018-Jan-31 11:28N 29°22' W 094°53'0 0.0
2018-Jan-31 10:50N 29°22' W 094°53'0 0.0
2018-Jan-31 09:11N 29°22' W 094°53'0 0.0
2018-Jan-31 08:59N 29°22' W 094°53'0 0.0
2018-Jan-31 07:56N 29°22' W 094°53'0 0.0
2018-Jan-31 07:23N 29°22' W 094°53'0 0.0
2018-Jan-31 06:58N 29°22' W 094°53'0 0.0
2018-Jan-31 06:26N 29°22' W 094°53'0 0.0
2018-Jan-31 05:56N 29°22' W 094°53'  
2018-Jan-28 19:31N 29°22' W 094°53'0 0.0
2018-Jan-28 19:23N 29°22' W 094°53'0 0.0
2018-Jan-28 18:59N 29°22' W 094°53'0 0.2
2018-Jan-28 18:30N 29°22' W 094°53'3 3.9
2018-Jan-28 17:41N 29°22' W 094°50'  

Dump ship's entire track history